Hoolehua, Hawaii
Current Conditions -  °F | °C
As of 6:54 AM on Thursday 23 Oct 2014 (Local Time) from PHMK Reporting Station
Few Clouds Few Clouds  
Wind Chill: 74°   Ceiling: Unl
Heat Index: 74°   Visibility: 10mi
Dew Point: 71°   Wind: 5mph
Humidity: 91%   Direction: 30°NNE
Pressure: 30.03"   Gusts: NA
Location:  21.16°N, 157.06°W
Report Text: PHMK 231654Z 03004KT 10SM FEW033 23/22 A3003 RMK AO2 SLP171 T02330217 $
Loading
Personal Weather Stations






























Interactive Weather Map
Tropical Storm Tracking
New forecast layout! Learn more

10-Day Weather Forecast

Advertisements
Track Severe Weather on mobile